Manheim, Pennsylvania
Current Conditions -  °F | °C
As of 6:53 PM on Monday 22 Dec 2014 (Local Time) from KLNS Reporting Station
Light Rain Light Rain  
Wind Chill: 32°   Ceiling: 3800
Heat Index: 37°   Visibility: 7mi
Dew Point: 32°   Wind: 7mph
Humidity: 82%   Direction: 60°ENE
Pressure: 30.15"   Gusts: NA
Location:  40.16°N, 76.4°W
Report Text: KLNS 222353Z 06006KT 7SM -RA BKN038 OVC060 03/00 A3015 RMK AO2 RAE20B46UPB06E08 SLP216 P0000 60000 T00280000 10039 20022 58006
Loading
Personal Weather Stations






























Interactive Weather Map New forecast layout! Learn more

10-Day Weather Forecast

Advertisements
Track Severe Weather on mobile